Terminal Aerodrome Forecast
Issued by NWS Pueblo, CO

Home | Current Version | Previous Version | Text Only | Print | Product List | Glossary On
Versions: 1 2 3 4 5 6 7 8 9 10 11 12 13 14 15 16 17 18 19 20 21 22 23 24 25 26 27 28 29 30 31 32 33 34 35 36 37 38 39 40 41 42 43 44
036
FTUS45 KPUB 300524
TAFALS
TAF
KALS 300524Z 3006/3106 VRB06KT P6SM FEW200
     FM301900 22009KT P6SM FEW100 SCT200
     FM302300 21012KT P6SM SCT100 BKN200
     FM310300 19010KT P6SM SCT070 BKN120=

USA.gov is the U.S. government's official web portal to all federal, state and local government web resources and services.